Airfield :
LOGIN :

Register | Disclaimer

   EN    FR    IT 

 










Legend :    VFR   Marginal VFR   IFR   Intensive IFR   Very Intensive IFR
Visi :
Ceiling :
>= 8 km
>= 3000ft
5 to 8 km
1000 to 3000 ft
1500m to 5 km
500 to 1000 ft
800 to 1500m
200 to 500 ft
< 800m
< 200 ft
Symbols :   Thunderstorms  Fog  Heavy snow  Heavy precipitations  Wind > 20 kt
SIGMETs :     Misc.  Thunderstorms  Icing  Turbulence  Mountain Waves  Volcanic Ashes







- Airport Elevation : 1090 ft
- IATA code : CFE
- Download approach charts


LFLC - Clermont-Ferrand Auvergne

CURRENT METAR :
  • 150430Z AUTO VRB02KT 9999 OVC021 M02/M05 Q1022 TEMPO 0400 FZFG VV///

EXPIRED METARs :
  • 150400Z AUTO VRB02KT 9999 BKN021 M02/M05 Q1021 TEMPO 0400 FZFG VV///
  • 150330Z AUTO 13003KT 9999 OVC021 M01/M05 Q1021 TEMPO 0400 FZFG VV///
  • 150300Z AUTO 09003KT 9999 OVC021 M01/M05 Q1022 TEMPO 0400 FZFG VV///
  • 150230Z AUTO 10002KT 9999 OVC021 M01/M04 Q1022 TEMPO 0400 FZFG VV///
  • 150200Z AUTO VRB02KT 9999 OVC021 M01/M05 Q1022 TEMPO 0400 FZFG VV///

TAF TAF LFLC
Valid from the 15 at 03:00 until the 16 at 03:00 UTC


150200Z 1503/1603 VRB02KT 9999 OVC020
PROB30
TEMPO 1503/1507 0400 FZFG VV///
TEMPO 1514/1603 4000 -RA
BECMG 1517/1519 18012KT
PROB40
TEMPO 1519/1603 BKN011
ATIS : +33 4 73 62 74 38
No reported NOTAMs for that airfield.



MET'MAP, your aeronautical weather chart ! - Copyright ORBIFLY December 2007 - Disclaimer

ORBIFLY MET'MAP TEAM :

Programming & Development : Alexandra Zaïnal
Concept & Development : Baudouin d'Aumeries
Co-Development & Prog : Marc-Olivier Méhu
Technical & hardware support : Manuel Goepfert

Contact : metmap@orbifly.com




SOURCES & CREDITS :

   NOAA